sensor_id;sensor_type;location;lat;lon;timestamp;temperature;humidity
7307;DHT22;3694;48.732;9.248;2023-05-10T00:02:24;13.00;99.90
7307;DHT22;3694;48.732;9.248;2023-05-10T00:04:50;13.00;99.90
7307;DHT22;3694;48.732;9.248;2023-05-10T00:07:15;13.00;99.90
7307;DHT22;3694;48.732;9.248;2023-05-10T00:09:43;13.00;99.90
7307;DHT22;3694;48.732;9.248;2023-05-10T00:12:08;13.00;99.90
7307;DHT22;3694;48.732;9.248;2023-05-10T00:14:34;13.00;99.90
7307;DHT22;3694;48.732;9.248;2023-05-10T00:16:59;13.00;99.90
7307;DHT22;3694;48.732;9.248;2023-05-10T00:19:25;13.00;99.90
7307;DHT22;3694;48.732;9.248;2023-05-10T00:21:51;13.00;99.90
7307;DHT22;3694;48.732;9.248;2023-05-10T00:24:16;13.00;99.90
7307;DHT22;3694;48.732;9.248;2023-05-10T00:26:41;12.90;99.90
7307;DHT22;3694;48.732;9.248;2023-05-10T00:29:07;12.90;99.90
7307;DHT22;3694;48.732;9.248;2023-05-10T00:31:33;12.90;99.90
7307;DHT22;3694;48.732;9.248;2023-05-10T00:33:58;12.80;99.90
7307;DHT22;3694;48.732;9.248;2023-05-10T00:36:24;12.80;99.90
7307;DHT22;3694;48.732;9.248;2023-05-10T00:38:49;12.80;99.90
7307;DHT22;3694;48.732;9.248;2023-05-10T00:41:15;12.70;99.90
7307;DHT22;3694;48.732;9.248;2023-05-10T00:43:41;12.70;99.90
7307;DHT22;3694;48.732;9.248;2023-05-10T00:46:06;12.60;99.90
7307;DHT22;3694;48.732;9.248;2023-05-10T00:48:32;12.60;99.90
7307;DHT22;3694;48.732;9.248;2023-05-10T00:50:58;12.50;99.90
7307;DHT22;3694;48.732;9.248;2023-05-10T00:53:24;12.50;99.90
7307;DHT22;3694;48.732;9.248;2023-05-10T00:55:50;12.40;99.90
7307;DHT22;3694;48.732;9.248;2023-05-10T00:58:16;12.40;99.90
7307;DHT22;3694;48.732;9.248;2023-05-10T01:00:42;12.30;99.90
7307;DHT22;3694;48.732;9.248;2023-05-10T01:03:10;12.30;99.90
7307;DHT22;3694;48.732;9.248;2023-05-10T01:05:37;12.30;99.90
7307;DHT22;3694;48.732;9.248;2023-05-10T01:08:02;12.20;99.90
7307;DHT22;3694;48.732;9.248;2023-05-10T01:10:28;12.20;99.90
7307;DHT22;3694;48.732;9.248;2023-05-10T01:12:54;12.20;99.90
7307;DHT22;3694;48.732;9.248;2023-05-10T01:15:20;12.20;99.90
7307;DHT22;3694;48.732;9.248;2023-05-10T01:17:47;12.10;99.90
7307;DHT22;3694;48.732;9.248;2023-05-10T01:20:14;12.10;99.90
7307;DHT22;3694;48.732;9.248;2023-05-10T01:36:23;11.90;99.90
7307;DHT22;3694;48.732;9.248;2023-05-10T01:39:02;11.90;99.90
7307;DHT22;3694;48.732;9.248;2023-05-10T01:41:55;11.90;99.90
7307;DHT22;3694;48.732;9.248;2023-05-10T01:45:07;11.80;99.90
7307;DHT22;3694;48.732;9.248;2023-05-10T01:47:54;11.80;99.90
7307;DHT22;3694;48.732;9.248;2023-05-10T01:50:29;11.80;99.90
7307;DHT22;3694;48.732;9.248;2023-05-10T01:52:58;11.80;99.90
7307;DHT22;3694;48.732;9.248;2023-05-10T01:55:27;11.70;99.90
7307;DHT22;3694;48.732;9.248;2023-05-10T01:58:19;11.70;99.90
7307;DHT22;3694;48.732;9.248;2023-05-10T02:00:46;11.70;99.90
7307;DHT22;3694;48.732;9.248;2023-05-10T02:03:13;11.70;99.90
7307;DHT22;3694;48.732;9.248;2023-05-10T02:05:41;11.70;99.90
7307;DHT22;3694;48.732;9.248;2023-05-10T02:08:09;11.70;99.90
7307;DHT22;3694;48.732;9.248;2023-05-10T02:10:36;11.70;99.90
7307;DHT22;3694;48.732;9.248;2023-05-10T02:13:03;11.70;99.90
7307;DHT22;3694;48.732;9.248;2023-05-10T02:15:29;11.70;99.90
7307;DHT22;3694;48.732;9.248;2023-05-10T02:17:58;11.60;99.90
7307;DHT22;3694;48.732;9.248;2023-05-10T02:20:26;11.60;99.90
7307;DHT22;3694;48.732;9.248;2023-05-10T02:22:54;11.60;99.90
7307;DHT22;3694;48.732;9.248;2023-05-10T02:25:21;11.60;99.90
7307;DHT22;3694;48.732;9.248;2023-05-10T02:27:48;11.50;99.90
7307;DHT22;3694;48.732;9.248;2023-05-10T02:30:14;11.50;99.90
7307;DHT22;3694;48.732;9.248;2023-05-10T02:32:41;11.40;99.90
7307;DHT22;3694;48.732;9.248;2023-05-10T02:35:09;11.40;99.90
7307;DHT22;3694;48.732;9.248;2023-05-10T02:37:37;11.40;99.90
7307;DHT22;3694;48.732;9.248;2023-05-10T02:40:04;11.40;99.90
7307;DHT22;3694;48.732;9.248;2023-05-10T02:42:33;11.40;99.90
7307;DHT22;3694;48.732;9.248;2023-05-10T02:45:01;11.30;99.90
7307;DHT22;3694;48.732;9.248;2023-05-10T02:47:28;11.40;99.90
7307;DHT22;3694;48.732;9.248;2023-05-10T02:49:54;11.40;99.90
7307;DHT22;3694;48.732;9.248;2023-05-10T02:52:24;11.50;99.90
7307;DHT22;3694;48.732;9.248;2023-05-10T02:54:54;11.50;99.90
7307;DHT22;3694;48.732;9.248;2023-05-10T02:57:25;11.50;99.90
7307;DHT22;3694;48.732;9.248;2023-05-10T02:59:51;11.50;99.90
7307;DHT22;3694;48.732;9.248;2023-05-10T03:02:17;11.50;99.90
7307;DHT22;3694;48.732;9.248;2023-05-10T03:04:42;11.50;99.90
7307;DHT22;3694;48.732;9.248;2023-05-10T03:07:08;11.60;99.90
7307;DHT22;3694;48.732;9.248;2023-05-10T03:09:34;11.60;99.90
7307;DHT22;3694;48.732;9.248;2023-05-10T03:12:29;11.60;99.90
7307;DHT22;3694;48.732;9.248;2023-05-10T03:15:03;11.60;99.90
7307;DHT22;3694;48.732;9.248;2023-05-10T03:17:39;11.60;99.90
7307;DHT22;3694;48.732;9.248;2023-05-10T03:20:10;11.60;99.90
7307;DHT22;3694;48.732;9.248;2023-05-10T03:22:40;11.60;99.90
7307;DHT22;3694;48.732;9.248;2023-05-10T03:25:10;11.60;99.90
7307;DHT22;3694;48.732;9.248;2023-05-10T03:27:40;11.60;99.90
7307;DHT22;3694;48.732;9.248;2023-05-10T03:30:09;11.60;99.90
7307;DHT22;3694;48.732;9.248;2023-05-10T03:32:35;11.70;99.90
7307;DHT22;3694;48.732;9.248;2023-05-10T03:35:06;11.70;99.90
7307;DHT22;3694;48.732;9.248;2023-05-10T03:37:31;11.70;99.90
7307;DHT22;3694;48.732;9.248;2023-05-10T03:39:57;11.70;99.90
7307;DHT22;3694;48.732;9.248;2023-05-10T03:42:22;11.60;99.90
7307;DHT22;3694;48.732;9.248;2023-05-10T03:44:48;11.60;99.90
7307;DHT22;3694;48.732;9.248;2023-05-10T03:47:15;11.60;99.90
7307;DHT22;3694;48.732;9.248;2023-05-10T03:49:40;11.60;99.90
7307;DHT22;3694;48.732;9.248;2023-05-10T03:52:06;11.60;99.90
7307;DHT22;3694;48.732;9.248;2023-05-10T03:54:31;11.60;99.90
7307;DHT22;3694;48.732;9.248;2023-05-10T03:56:57;11.60;99.90
7307;DHT22;3694;48.732;9.248;2023-05-10T03:59:23;11.70;99.90
7307;DHT22;3694;48.732;9.248;2023-05-10T04:01:48;11.70;99.90
7307;DHT22;3694;48.732;9.248;2023-05-10T04:04:14;11.70;99.90
7307;DHT22;3694;48.732;9.248;2023-05-10T04:06:39;11.60;99.90
7307;DHT22;3694;48.732;9.248;2023-05-10T04:09:05;11.70;99.90
7307;DHT22;3694;48.732;9.248;2023-05-10T04:11:30;11.70;99.90
7307;DHT22;3694;48.732;9.248;2023-05-10T04:13:56;11.70;99.90
7307;DHT22;3694;48.732;9.248;2023-05-10T04:16:21;11.70;99.90
7307;DHT22;3694;48.732;9.248;2023-05-10T04:18:47;11.70;99.90
7307;DHT22;3694;48.732;9.248;2023-05-10T04:21:13;11.70;99.90
7307;DHT22;3694;48.732;9.248;2023-05-10T04:23:39;11.80;99.90
7307;DHT22;3694;48.732;9.248;2023-05-10T04:26:05;11.90;99.90
7307;DHT22;3694;48.732;9.248;2023-05-10T04:28:30;11.70;99.90
7307;DHT22;3694;48.732;9.248;2023-05-10T04:31:06;11.70;99.90
7307;DHT22;3694;48.732;9.248;2023-05-10T04:33:32;11.70;99.90
7307;DHT22;3694;48.732;9.248;2023-05-10T04:35:59;11.80;99.90
7307;DHT22;3694;48.732;9.248;2023-05-10T04:38:25;11.80;99.90
7307;DHT22;3694;48.732;9.248;2023-05-10T04:40:51;11.80;99.90
7307;DHT22;3694;48.732;9.248;2023-05-10T04:43:16;11.90;99.90
7307;DHT22;3694;48.732;9.248;2023-05-10T04:45:42;11.90;99.90
7307;DHT22;3694;48.732;9.248;2023-05-10T04:48:07;12.00;99.90
7307;DHT22;3694;48.732;9.248;2023-05-10T04:50:33;12.00;99.90
7307;DHT22;3694;48.732;9.248;2023-05-10T04:52:58;12.00;99.90
7307;DHT22;3694;48.732;9.248;2023-05-10T04:55:24;12.00;99.90
7307;DHT22;3694;48.732;9.248;2023-05-10T04:57:50;12.10;99.90
7307;DHT22;3694;48.732;9.248;2023-05-10T05:00:16;12.10;99.90
7307;DHT22;3694;48.732;9.248;2023-05-10T05:02:45;12.10;99.90
7307;DHT22;3694;48.732;9.248;2023-05-10T05:05:11;12.20;99.90
7307;DHT22;3694;48.732;9.248;2023-05-10T05:07:37;12.30;99.90
7307;DHT22;3694;48.732;9.248;2023-05-10T05:10:05;12.40;99.90
7307;DHT22;3694;48.732;9.248;2023-05-10T05:12:30;12.40;99.90
7307;DHT22;3694;48.732;9.248;2023-05-10T05:14:56;12.50;99.90
7307;DHT22;3694;48.732;9.248;2023-05-10T05:17:21;12.60;99.90
7307;DHT22;3694;48.732;9.248;2023-05-10T05:19:47;12.80;99.90
7307;DHT22;3694;48.732;9.248;2023-05-10T05:22:12;12.80;99.90
7307;DHT22;3694;48.732;9.248;2023-05-10T05:24:38;12.70;99.90
7307;DHT22;3694;48.732;9.248;2023-05-10T05:27:04;12.90;99.90
7307;DHT22;3694;48.732;9.248;2023-05-10T05:29:29;12.90;99.90
7307;DHT22;3694;48.732;9.248;2023-05-10T05:31:55;13.00;99.90
7307;DHT22;3694;48.732;9.248;2023-05-10T05:34:20;13.10;99.90
7307;DHT22;3694;48.732;9.248;2023-05-10T05:36:47;13.10;99.90
7307;DHT22;3694;48.732;9.248;2023-05-10T05:39:13;13.10;99.90
7307;DHT22;3694;48.732;9.248;2023-05-10T05:41:39;13.10;99.90
7307;DHT22;3694;48.732;9.248;2023-05-10T05:44:04;13.20;99.90
7307;DHT22;3694;48.732;9.248;2023-05-10T05:46:30;13.30;99.90
7307;DHT22;3694;48.732;9.248;2023-05-10T05:48:56;13.50;99.90
7307;DHT22;3694;48.732;9.248;2023-05-10T05:51:22;13.60;99.90
7307;DHT22;3694;48.732;9.248;2023-05-10T05:53:47;13.70;99.90
7307;DHT22;3694;48.732;9.248;2023-05-10T05:56:13;13.70;99.90
7307;DHT22;3694;48.732;9.248;2023-05-10T05:58:38;13.70;99.90
7307;DHT22;3694;48.732;9.248;2023-05-10T06:01:04;13.70;99.90
7307;DHT22;3694;48.732;9.248;2023-05-10T06:03:29;13.60;99.90
7307;DHT22;3694;48.732;9.248;2023-05-10T06:05:55;13.60;99.90
7307;DHT22;3694;48.732;9.248;2023-05-10T06:08:20;13.60;99.90
7307;DHT22;3694;48.732;9.248;2023-05-10T06:10:46;13.60;99.90
7307;DHT22;3694;48.732;9.248;2023-05-10T06:13:12;13.70;99.90
7307;DHT22;3694;48.732;9.248;2023-05-10T06:15:37;13.90;99.90
7307;DHT22;3694;48.732;9.248;2023-05-10T06:18:03;14.00;99.90
7307;DHT22;3694;48.732;9.248;2023-05-10T06:20:29;14.20;99.90
7307;DHT22;3694;48.732;9.248;2023-05-10T06:22:56;14.20;99.90
7307;DHT22;3694;48.732;9.248;2023-05-10T06:25:22;14.20;99.90
7307;DHT22;3694;48.732;9.248;2023-05-10T06:27:48;14.20;99.90
7307;DHT22;3694;48.732;9.248;2023-05-10T06:30:14;14.20;99.90
7307;DHT22;3694;48.732;9.248;2023-05-10T06:32:40;14.30;99.90
7307;DHT22;3694;48.732;9.248;2023-05-10T06:35:06;14.30;99.90
7307;DHT22;3694;48.732;9.248;2023-05-10T06:37:32;14.40;99.90
7307;DHT22;3694;48.732;9.248;2023-05-10T06:39:57;14.30;99.90
7307;DHT22;3694;48.732;9.248;2023-05-10T06:42:23;14.40;99.90
7307;DHT22;3694;48.732;9.248;2023-05-10T06:44:50;14.10;99.90
7307;DHT22;3694;48.732;9.248;2023-05-10T06:47:16;14.20;99.90
7307;DHT22;3694;48.732;9.248;2023-05-10T06:49:42;14.30;99.90
7307;DHT22;3694;48.732;9.248;2023-05-10T06:52:07;14.10;99.90
7307;DHT22;3694;48.732;9.248;2023-05-10T06:54:33;14.10;99.90
7307;DHT22;3694;48.732;9.248;2023-05-10T06:56:58;14.00;99.90
7307;DHT22;3694;48.732;9.248;2023-05-10T06:59:24;14.00;99.90
7307;DHT22;3694;48.732;9.248;2023-05-10T07:01:50;14.00;99.90
7307;DHT22;3694;48.732;9.248;2023-05-10T07:04:15;14.00;99.90
7307;DHT22;3694;48.732;9.248;2023-05-10T07:06:41;14.00;99.90
7307;DHT22;3694;48.732;9.248;2023-05-10T07:09:06;13.90;99.90
7307;DHT22;3694;48.732;9.248;2023-05-10T07:11:32;14.00;99.90
7307;DHT22;3694;48.732;9.248;2023-05-10T07:13:58;13.90;99.90
7307;DHT22;3694;48.732;9.248;2023-05-10T07:16:24;14.00;99.90
7307;DHT22;3694;48.732;9.248;2023-05-10T07:18:49;14.10;99.90
7307;DHT22;3694;48.732;9.248;2023-05-10T07:21:15;14.30;99.90
7307;DHT22;3694;48.732;9.248;2023-05-10T07:23:41;14.50;99.90
7307;DHT22;3694;48.732;9.248;2023-05-10T07:26:07;14.80;99.90
7307;DHT22;3694;48.732;9.248;2023-05-10T07:28:32;15.00;99.90
7307;DHT22;3694;48.732;9.248;2023-05-10T07:30:58;15.30;99.90
7307;DHT22;3694;48.732;9.248;2023-05-10T07:33:23;15.50;99.90
7307;DHT22;3694;48.732;9.248;2023-05-10T07:35:49;15.80;99.90
7307;DHT22;3694;48.732;9.248;2023-05-10T07:38:15;16.10;99.90
7307;DHT22;3694;48.732;9.248;2023-05-10T07:40:40;16.20;99.90
7307;DHT22;3694;48.732;9.248;2023-05-10T07:43:06;16.50;99.90
7307;DHT22;3694;48.732;9.248;2023-05-10T07:45:32;16.60;99.90
7307;DHT22;3694;48.732;9.248;2023-05-10T07:47:58;16.60;99.90
7307;DHT22;3694;48.732;9.248;2023-05-10T07:50:23;16.60;99.90
7307;DHT22;3694;48.732;9.248;2023-05-10T07:52:49;16.60;99.90
7307;DHT22;3694;48.732;9.248;2023-05-10T07:55:14;16.50;99.90
7307;DHT22;3694;48.732;9.248;2023-05-10T07:57:40;16.40;99.90
7307;DHT22;3694;48.732;9.248;2023-05-10T08:00:06;16.40;99.90
7307;DHT22;3694;48.732;9.248;2023-05-10T08:02:34;16.40;99.90
7307;DHT22;3694;48.732;9.248;2023-05-10T08:05:00;16.30;99.90
7307;DHT22;3694;48.732;9.248;2023-05-10T08:07:26;16.30;99.90
7307;DHT22;3694;48.732;9.248;2023-05-10T08:09:51;16.20;99.90
7307;DHT22;3694;48.732;9.248;2023-05-10T08:12:16;16.10;99.90
7307;DHT22;3694;48.732;9.248;2023-05-10T08:14:42;16.00;99.90
7307;DHT22;3694;48.732;9.248;2023-05-10T08:17:08;15.90;99.90
7307;DHT22;3694;48.732;9.248;2023-05-10T08:19:34;15.90;99.90
7307;DHT22;3694;48.732;9.248;2023-05-10T08:22:00;16.00;99.90
7307;DHT22;3694;48.732;9.248;2023-05-10T08:24:26;15.90;99.90
7307;DHT22;3694;48.732;9.248;2023-05-10T08:26:51;16.10;99.90
7307;DHT22;3694;48.732;9.248;2023-05-10T08:29:16;16.20;99.90
7307;DHT22;3694;48.732;9.248;2023-05-10T08:31:42;16.20;99.90
7307;DHT22;3694;48.732;9.248;2023-05-10T08:34:07;16.10;99.90
7307;DHT22;3694;48.732;9.248;2023-05-10T08:36:33;16.00;99.90
7307;DHT22;3694;48.732;9.248;2023-05-10T08:38:59;16.00;99.90
7307;DHT22;3694;48.732;9.248;2023-05-10T08:41:25;16.00;99.90
7307;DHT22;3694;48.732;9.248;2023-05-10T08:43:54;16.00;99.90
7307;DHT22;3694;48.732;9.248;2023-05-10T08:46:21;16.10;99.90
7307;DHT22;3694;48.732;9.248;2023-05-10T08:48:48;16.20;99.90
7307;DHT22;3694;48.732;9.248;2023-05-10T08:51:19;16.20;99.90
7307;DHT22;3694;48.732;9.248;2023-05-10T08:53:45;16.50;99.90
7307;DHT22;3694;48.732;9.248;2023-05-10T08:56:11;16.60;99.90
7307;DHT22;3694;48.732;9.248;2023-05-10T08:58:37;16.80;99.90
7307;DHT22;3694;48.732;9.248;2023-05-10T09:01:03;16.80;99.90
7307;DHT22;3694;48.732;9.248;2023-05-10T09:03:30;16.80;99.90
7307;DHT22;3694;48.732;9.248;2023-05-10T09:05:56;16.90;99.90
7307;DHT22;3694;48.732;9.248;2023-05-10T09:08:23;17.10;99.90
7307;DHT22;3694;48.732;9.248;2023-05-10T09:10:52;17.20;99.90
7307;DHT22;3694;48.732;9.248;2023-05-10T09:13:18;17.00;99.90
7307;DHT22;3694;48.732;9.248;2023-05-10T09:15:45;16.70;99.90
7307;DHT22;3694;48.732;9.248;2023-05-10T09:18:11;16.60;99.90
7307;DHT22;3694;48.732;9.248;2023-05-10T09:20:36;16.60;99.90
7307;DHT22;3694;48.732;9.248;2023-05-10T09:23:02;16.40;99.90
7307;DHT22;3694;48.732;9.248;2023-05-10T09:25:28;16.20;99.90
7307;DHT22;3694;48.732;9.248;2023-05-10T09:27:53;16.00;99.90
7307;DHT22;3694;48.732;9.248;2023-05-10T09:30:27;15.90;99.90
7307;DHT22;3694;48.732;9.248;2023-05-10T09:32:54;15.80;99.90
7307;DHT22;3694;48.732;9.248;2023-05-10T09:35:22;15.80;99.90
7307;DHT22;3694;48.732;9.248;2023-05-10T09:37:53;15.70;99.90
7307;DHT22;3694;48.732;9.248;2023-05-10T09:40:27;15.50;99.90
7307;DHT22;3694;48.732;9.248;2023-05-10T09:43:04;15.20;99.90
7307;DHT22;3694;48.732;9.248;2023-05-10T09:45:33;14.70;99.90
7307;DHT22;3694;48.732;9.248;2023-05-10T09:48:00;14.20;99.90
7307;DHT22;3694;48.732;9.248;2023-05-10T09:50:26;14.10;99.90
7307;DHT22;3694;48.732;9.248;2023-05-10T09:52:58;14.20;99.90
7307;DHT22;3694;48.732;9.248;2023-05-10T09:55:27;14.40;99.90
7307;DHT22;3694;48.732;9.248;2023-05-10T09:58:02;14.80;99.90
7307;DHT22;3694;48.732;9.248;2023-05-10T10:00:34;15.00;99.90
7307;DHT22;3694;48.732;9.248;2023-05-10T10:03:01;15.20;99.90
7307;DHT22;3694;48.732;9.248;2023-05-10T10:05:35;15.60;99.90
7307;DHT22;3694;48.732;9.248;2023-05-10T10:08:03;16.00;99.90
7307;DHT22;3694;48.732;9.248;2023-05-10T10:10:31;16.30;99.90
7307;DHT22;3694;48.732;9.248;2023-05-10T10:12:57;16.80;99.90
7307;DHT22;3694;48.732;9.248;2023-05-10T10:15:23;17.30;99.60
7307;DHT22;3694;48.732;9.248;2023-05-10T10:17:51;17.80;99.60
7307;DHT22;3694;48.732;9.248;2023-05-10T10:20:19;18.40;99.90
7307;DHT22;3694;48.732;9.248;2023-05-10T10:22:46;18.80;98.30
7307;DHT22;3694;48.732;9.248;2023-05-10T10:25:13;19.20;98.80
7307;DHT22;3694;48.732;9.248;2023-05-10T10:33:01;19.50;96.60
7307;DHT22;3694;48.732;9.248;2023-05-10T10:35:30;19.60;95.40
7307;DHT22;3694;48.732;9.248;2023-05-10T10:37:56;19.90;95.30
7307;DHT22;3694;48.732;9.248;2023-05-10T10:42:52;19.30;94.70
7307;DHT22;3694;48.732;9.248;2023-05-10T10:45:19;18.80;95.70
7307;DHT22;3694;48.732;9.248;2023-05-10T10:47:45;18.50;95.60
7307;DHT22;3694;48.732;9.248;2023-05-10T10:50:10;18.30;95.20
7307;DHT22;3694;48.732;9.248;2023-05-10T10:52:43;18.00;95.50
7307;DHT22;3694;48.732;9.248;2023-05-10T10:55:21;17.90;96.20
7307;DHT22;3694;48.732;9.248;2023-05-10T10:57:52;17.80;96.20
7307;DHT22;3694;48.732;9.248;2023-05-10T11:03:04;17.70;95.50
7307;DHT22;3694;48.732;9.248;2023-05-10T11:08:16;17.80;95.50
7307;DHT22;3694;48.732;9.248;2023-05-10T11:11:01;17.70;95.30
7307;DHT22;3694;48.732;9.248;2023-05-10T11:18:36;16.00;95.90
7307;DHT22;3694;48.732;9.248;2023-05-10T11:21:02;15.90;95.90
7307;DHT22;3694;48.732;9.248;2023-05-10T11:25:56;16.20;96.00
7307;DHT22;3694;48.732;9.248;2023-05-10T11:28:22;16.20;95.50
7307;DHT22;3694;48.732;9.248;2023-05-10T11:30:48;16.30;96.10
7307;DHT22;3694;48.732;9.248;2023-05-10T11:33:18;16.10;95.40
7307;DHT22;3694;48.732;9.248;2023-05-10T11:35:45;16.00;94.60
7307;DHT22;3694;48.732;9.248;2023-05-10T11:38:11;15.90;94.30
7307;DHT22;3694;48.732;9.248;2023-05-10T11:40:38;15.80;94.10
7307;DHT22;3694;48.732;9.248;2023-05-10T11:43:04;15.70;94.40
7307;DHT22;3694;48.732;9.248;2023-05-10T11:45:34;15.50;93.20
7307;DHT22;3694;48.732;9.248;2023-05-10T11:48:00;15.20;94.00
7307;DHT22;3694;48.732;9.248;2023-05-10T11:50:27;15.10;94.50
7307;DHT22;3694;48.732;9.248;2023-05-10T11:52:53;14.90;95.30
7307;DHT22;3694;48.732;9.248;2023-05-10T11:55:19;14.60;95.80
7307;DHT22;3694;48.732;9.248;2023-05-10T11:57:44;14.60;96.50
7307;DHT22;3694;48.732;9.248;2023-05-10T12:00:12;14.40;97.80
7307;DHT22;3694;48.732;9.248;2023-05-10T12:02:38;14.50;98.90
7307;DHT22;3694;48.732;9.248;2023-05-10T12:05:04;14.40;99.40
7307;DHT22;3694;48.732;9.248;2023-05-10T12:07:31;14.40;99.80
7307;DHT22;3694;48.732;9.248;2023-05-10T12:10:26;14.40;99.90
7307;DHT22;3694;48.732;9.248;2023-05-10T12:12:52;14.50;99.90
7307;DHT22;3694;48.732;9.248;2023-05-10T12:15:23;14.60;99.90
7307;DHT22;3694;48.732;9.248;2023-05-10T12:17:50;14.60;99.90
7307;DHT22;3694;48.732;9.248;2023-05-10T12:20:23;14.70;99.90
7307;DHT22;3694;48.732;9.248;2023-05-10T12:22:54;14.80;99.90
7307;DHT22;3694;48.732;9.248;2023-05-10T12:25:21;14.80;99.90
7307;DHT22;3694;48.732;9.248;2023-05-10T12:27:51;15.00;99.90
7307;DHT22;3694;48.732;9.248;2023-05-10T12:30:24;15.30;99.90
7307;DHT22;3694;48.732;9.248;2023-05-10T12:32:51;15.50;99.20
7307;DHT22;3694;48.732;9.248;2023-05-10T12:35:17;15.90;98.80
7307;DHT22;3694;48.732;9.248;2023-05-10T12:37:47;16.00;98.10
7307;DHT22;3694;48.732;9.248;2023-05-10T12:40:13;16.10;98.10
7307;DHT22;3694;48.732;9.248;2023-05-10T12:42:39;16.10;97.10
7307;DHT22;3694;48.732;9.248;2023-05-10T12:45:05;16.10;98.10
7307;DHT22;3694;48.732;9.248;2023-05-10T12:47:32;16.20;97.60
7307;DHT22;3694;48.732;9.248;2023-05-10T12:49:59;16.20;97.70
7307;DHT22;3694;48.732;9.248;2023-05-10T12:52:25;16.30;97.40
7307;DHT22;3694;48.732;9.248;2023-05-10T12:54:51;16.40;97.80
7307;DHT22;3694;48.732;9.248;2023-05-10T12:57:17;16.30;96.70
7307;DHT22;3694;48.732;9.248;2023-05-10T12:59:43;16.20;97.10
7307;DHT22;3694;48.732;9.248;2023-05-10T13:02:08;16.10;97.20
7307;DHT22;3694;48.732;9.248;2023-05-10T13:04:34;15.80;97.00
7307;DHT22;3694;48.732;9.248;2023-05-10T13:07:00;15.60;97.50
7307;DHT22;3694;48.732;9.248;2023-05-10T13:09:28;15.40;97.40
7307;DHT22;3694;48.732;9.248;2023-05-10T13:11:54;15.30;98.30
7307;DHT22;3694;48.732;9.248;2023-05-10T13:14:20;15.10;98.20
7307;DHT22;3694;48.732;9.248;2023-05-10T13:16:46;15.00;99.90
7307;DHT22;3694;48.732;9.248;2023-05-10T13:19:13;14.90;99.90
7307;DHT22;3694;48.732;9.248;2023-05-10T13:21:38;14.90;98.90
7307;DHT22;3694;48.732;9.248;2023-05-10T13:24:06;15.10;99.30
7307;DHT22;3694;48.732;9.248;2023-05-10T13:26:32;15.50;99.40
7307;DHT22;3694;48.732;9.248;2023-05-10T13:28:57;16.00;99.90
7307;DHT22;3694;48.732;9.248;2023-05-10T13:31:23;16.50;98.40
7307;DHT22;3694;48.732;9.248;2023-05-10T13:33:48;17.00;97.10
7307;DHT22;3694;48.732;9.248;2023-05-10T13:36:14;17.40;95.80
7307;DHT22;3694;48.732;9.248;2023-05-10T13:38:39;17.70;95.30
7307;DHT22;3694;48.732;9.248;2023-05-10T13:41:05;18.00;94.30
7307;DHT22;3694;48.732;9.248;2023-05-10T13:43:30;18.00;93.00
7307;DHT22;3694;48.732;9.248;2023-05-10T13:45:56;18.10;93.90
7307;DHT22;3694;48.732;9.248;2023-05-10T13:48:22;18.40;94.50
7307;DHT22;3694;48.732;9.248;2023-05-10T13:50:47;18.50;95.70
7307;DHT22;3694;48.732;9.248;2023-05-10T13:53:13;18.50;92.90
7307;DHT22;3694;48.732;9.248;2023-05-10T13:55:39;18.40;93.00
7307;DHT22;3694;48.732;9.248;2023-05-10T13:58:05;18.50;92.50
7307;DHT22;3694;48.732;9.248;2023-05-10T14:00:30;18.30;92.50
7307;DHT22;3694;48.732;9.248;2023-05-10T14:02:56;18.10;93.40
7307;DHT22;3694;48.732;9.248;2023-05-10T14:05:22;18.00;93.30
7307;DHT22;3694;48.732;9.248;2023-05-10T14:07:49;18.10;94.00
7307;DHT22;3694;48.732;9.248;2023-05-10T14:10:15;18.30;93.30
7307;DHT22;3694;48.732;9.248;2023-05-10T14:12:41;18.30;92.70
7307;DHT22;3694;48.732;9.248;2023-05-10T14:15:06;18.20;92.90
7307;DHT22;3694;48.732;9.248;2023-05-10T14:17:32;18.20;92.80
7307;DHT22;3694;48.732;9.248;2023-05-10T14:19:58;18.10;92.70
7307;DHT22;3694;48.732;9.248;2023-05-10T14:22:23;18.30;92.30
7307;DHT22;3694;48.732;9.248;2023-05-10T14:24:49;18.20;91.00
7307;DHT22;3694;48.732;9.248;2023-05-10T14:27:15;18.20;93.10
7307;DHT22;3694;48.732;9.248;2023-05-10T14:29:41;18.40;93.20
7307;DHT22;3694;48.732;9.248;2023-05-10T14:32:06;18.10;92.00
7307;DHT22;3694;48.732;9.248;2023-05-10T14:34:32;18.10;92.70
7307;DHT22;3694;48.732;9.248;2023-05-10T14:36:58;18.20;92.10
7307;DHT22;3694;48.732;9.248;2023-05-10T14:39:23;18.20;92.40
7307;DHT22;3694;48.732;9.248;2023-05-10T14:41:49;18.10;91.10
7307;DHT22;3694;48.732;9.248;2023-05-10T14:44:16;18.00;91.70
7307;DHT22;3694;48.732;9.248;2023-05-10T14:46:42;17.90;91.70
7307;DHT22;3694;48.732;9.248;2023-05-10T14:49:07;18.00;90.70
7307;DHT22;3694;48.732;9.248;2023-05-10T14:51:33;18.00;91.90
7307;DHT22;3694;48.732;9.248;2023-05-10T14:54:00;17.70;91.70
7307;DHT22;3694;48.732;9.248;2023-05-10T14:56:25;17.70;91.50
7307;DHT22;3694;48.732;9.248;2023-05-10T14:58:51;17.90;91.20
7307;DHT22;3694;48.732;9.248;2023-05-10T15:01:17;17.80;91.50
7307;DHT22;3694;48.732;9.248;2023-05-10T15:03:42;17.70;91.80
7307;DHT22;3694;48.732;9.248;2023-05-10T15:06:08;17.70;91.80
7307;DHT22;3694;48.732;9.248;2023-05-10T15:08:34;17.50;90.80
7307;DHT22;3694;48.732;9.248;2023-05-10T15:10:59;17.40;90.00
7307;DHT22;3694;48.732;9.248;2023-05-10T15:13:25;17.20;90.90
7307;DHT22;3694;48.732;9.248;2023-05-10T15:15:51;17.10;90.80
7307;DHT22;3694;48.732;9.248;2023-05-10T15:18:16;16.90;91.80
7307;DHT22;3694;48.732;9.248;2023-05-10T15:20:42;16.90;92.80
7307;DHT22;3694;48.732;9.248;2023-05-10T15:23:07;16.70;91.80
7307;DHT22;3694;48.732;9.248;2023-05-10T15:25:33;16.90;93.10
7307;DHT22;3694;48.732;9.248;2023-05-10T15:28:03;17.00;92.10
7307;DHT22;3694;48.732;9.248;2023-05-10T15:30:29;17.10;93.20
7307;DHT22;3694;48.732;9.248;2023-05-10T15:32:55;17.20;93.60
7307;DHT22;3694;48.732;9.248;2023-05-10T15:35:20;17.30;92.40
7307;DHT22;3694;48.732;9.248;2023-05-10T15:37:48;17.30;91.50
7307;DHT22;3694;48.732;9.248;2023-05-10T15:40:14;17.20;91.20
7307;DHT22;3694;48.732;9.248;2023-05-10T15:42:40;17.30;91.00
7307;DHT22;3694;48.732;9.248;2023-05-10T15:45:06;17.40;91.20
7307;DHT22;3694;48.732;9.248;2023-05-10T15:47:31;17.50;91.50
7307;DHT22;3694;48.732;9.248;2023-05-10T15:49:58;17.50;90.80
7307;DHT22;3694;48.732;9.248;2023-05-10T15:52:23;17.50;91.30
7307;DHT22;3694;48.732;9.248;2023-05-10T15:54:49;17.50;90.90
7307;DHT22;3694;48.732;9.248;2023-05-10T15:57:15;17.30;90.80
7307;DHT22;3694;48.732;9.248;2023-05-10T15:59:40;17.30;91.00
7307;DHT22;3694;48.732;9.248;2023-05-10T16:02:08;17.20;91.00
7307;DHT22;3694;48.732;9.248;2023-05-10T16:04:35;17.10;91.60
7307;DHT22;3694;48.732;9.248;2023-05-10T16:07:01;17.20;90.70
7307;DHT22;3694;48.732;9.248;2023-05-10T16:09:27;17.00;90.90
7307;DHT22;3694;48.732;9.248;2023-05-10T16:11:52;17.00;90.60
7307;DHT22;3694;48.732;9.248;2023-05-10T16:14:18;16.90;90.30
7307;DHT22;3694;48.732;9.248;2023-05-10T16:16:45;16.80;91.10
7307;DHT22;3694;48.732;9.248;2023-05-10T16:19:11;16.80;92.20
7307;DHT22;3694;48.732;9.248;2023-05-10T16:21:37;16.80;91.60
7307;DHT22;3694;48.732;9.248;2023-05-10T16:24:03;16.80;92.50
7307;DHT22;3694;48.732;9.248;2023-05-10T16:26:29;16.60;91.00
7307;DHT22;3694;48.732;9.248;2023-05-10T16:28:54;16.50;90.70
7307;DHT22;3694;48.732;9.248;2023-05-10T16:31:20;16.40;91.90
7307;DHT22;3694;48.732;9.248;2023-05-10T16:33:45;16.20;92.00
7307;DHT22;3694;48.732;9.248;2023-05-10T16:36:11;16.40;91.60